KOUN

University of Oklahoma Westheimer Airport

Norman, Oklahoma, USA
KOUN 251138Z 2512/2612 17011KT 5SM BR OVC004 TEMPO 2512/2514 2SM BR OVC003 FM251500 20013G20KT P6SM SCT250 FM252330 01015G24KT P6SM BKN040 PROB30 2606/2612 4SM -SHRA BKN025
Issued Valid From Valid To
Sep-25 @ 11:38 UTC
(3 hours ago)
Sep-25 @ 12:00 UTC
(3 hours ago)
Sep-26 @ 12:00 UTC
(in 21 hours)
Expired Click to View Sep-25 @ 12:00 to Sep-25 @ 15:00
KOUN 251138Z 2512/2612 17011KT 5SM BR OVC004
Wind Visibility Clouds Conditions
170° at 11 knots 5 miles
  • Overcast at 400' AGL
  • Mist
Expired Click to View Sep-25 @ 12:00 to Sep-25 @ 14:00
TEMPO 2512/2514 2SM BR OVC003
Visibility Clouds Conditions
2 miles
  • Overcast at 300' AGL
  • Mist
From Sep-25 @ 15:00 to Sep-25 @ 23:30
FM251500 20013G20KT P6SM SCT250
Wind Visibility Clouds
200° at 13 knots
 Gusting to 20 knots
Greater than 6 miles
  • Scattered at 25,000' AGL
From Sep-25 @ 23:30 to Sep-26 @ 12:00
FM252330 01015G24KT P6SM BKN040
Wind Visibility Clouds
10° at 15 knots
 Gusting to 24 knots
Greater than 6 miles
  • Broken at 4,000' AGL
Probable  (Probability 30%) Sep-26 @ 06:00 to Sep-26 @ 12:00
PROB30 2606/2612 4SM -SHRA BKN025
Visibility Clouds Conditions
4 miles
  • Broken at 2,500' AGL
  • Light Rain
KOUN 251138Z 2512/2612 17011KT 5SM BR OVC004 TEMPO 2512/2514 2SM BR OVC003 FM251500 20013G20KT P6SM SCT250 FM252330 01015G24KT P6SM BKN040 PROB30 2606/2612 4SM -SHRA BKN025
Issued Sep-25 @ 11:38 UTC
(3 hours ago)
Valid From Sep-25 @ 12:00 UTC
(3 hours ago)
Valid To Sep-26 @ 12:00 UTC
(in 21 hours)
Sep-25 @ 12:00 - Sep-25 @ 15:00
Wind Visibility
170° at 11 knots 5 miles
Clouds
  • Overcast at 400' AGL
Conditions
  • Mist
Sep-25 @ 12:00 - Sep-25 @ 14:00
Clouds
  • Overcast at 300' AGL
Conditions
  • Mist
From Sep-25 @ 15:00 - Sep-25 @ 23:30
Wind Visibility
200° at 13 knots
 Gusting to 20 knots
Greater than 6 miles
Clouds
  • Scattered at 25,000' AGL
From Sep-25 @ 23:30 - Sep-26 @ 12:00
Wind Visibility
10° at 15 knots
 Gusting to 24 knots
Greater than 6 miles
Clouds
  • Broken at 4,000' AGL
Probability 30% Probable Sep-26 @ 06:00 - Sep-26 @ 12:00
Clouds
  • Broken at 2,500' AGL
Conditions
  • Light Rain